Qitai, China
Current Conditions -  °F | °C
As of 12:30 AM on Thursday 27 Nov 2014 (Local Time) from ZWWW Reporting Station
Haze Haze  
Wind Chill:   Ceiling: Unl
Heat Index: 16°   Visibility: 1mi
Dew Point: 14°   Wind: 4mph
Humidity: 93%   Direction: 250°WSW
Pressure: 30.27"   Gusts: NA
Location:  44.02°N, 89.47°E
Report Text: ZWWW 261630Z 25002MPS 1600 BR NSC M09/M10 Q1025 NOSIG
Loading
Personal Weather Stations






























Interactive Weather Map New forecast layout! Learn more

10-Day Weather Forecast

Advertisements
Track Severe Weather on mobile